This is the latest recevied weather packets stored in our database for station/object DB0RV-13. If no packets are shown the sender has not sent any weather packets the latest 1 day(s).
| Time | Temp. | Humidity | Pressure | Rain* | Wind** | Luminosity | Snow |
|---|---|---|---|---|---|---|---|
| 1778033102 | 10° C | 89% | 1007.6 hPa | - | - | - | - |
| 1778032202 | 9.44° C | 90% | 1007.8 hPa | - | - | - | - |
| 1778029802 | 10° C | 88% | 1007.8 hPa | - | - | - | - |
| 1778029502 | 10° C | 88% | 1007.9 hPa | - | - | - | - |
| 1778028602 | 10° C | 88% | 1008.3 hPa | - | - | - | - |
| 1778027702 | 10° C | 88% | 1008.4 hPa | - | - | - | - |
| 1778026802 | 10.56° C | 85% | 1008.1 hPa | - | - | - | - |
| 1778025902 | 10.56° C | 87% | 1008.3 hPa | - | - | - | - |
| 1778025002 | 10° C | 88% | 1008.3 hPa | - | - | - | - |
| 1778020502 | 10° C | 88% | 1008.8 hPa | - | - | - | - |
| 1778019602 | 10.56° C | 88% | 1008.9 hPa | - | - | - | - |
| 1778015102 | 10.56° C | 89% | 1008.9 hPa | - | - | - | - |
| 1778012702 | 10.56° C | 90% | 1009.1 hPa | - | - | - | - |
| 1778011802 | 11.11° C | 87% | 1009 hPa | - | - | - | - |
| 1778010902 | 11.11° C | 87% | 1008.9 hPa | - | - | - | - |
| 1778008202 | 11.67° C | 85% | 1008.7 hPa | - | - | - | - |
| 1778007602 | 11.67° C | 83% | 1008.5 hPa | - | - | - | - |
| 1778007002 | 11.67° C | 83% | 1008.6 hPa | - | - | - | - |
| 1778005802 | 13.33° C | 72% | 1008.2 hPa | - | - | - | - |
| 1778005502 | 13.89° C | 70% | 1008 hPa | - | - | - | - |
* Rain since midnight (hover to see other rain measurements)
** Current wind speed in m/s (hover to see current wind gust speed)